sensor_id;sensor_type;location;lat;lon;timestamp;P1;durP1;ratioP1;P2;durP2;ratioP2
47545;SDS011;50104;52.002;4.688;2022-12-26T00:04:32;34.15;;;17.05;;
47545;SDS011;50104;52.002;4.688;2022-12-26T00:09:34;42.33;;;19.80;;
47545;SDS011;50104;52.002;4.688;2022-12-26T00:14:34;39.80;;;19.33;;
47545;SDS011;50104;52.002;4.688;2022-12-26T00:19:35;37.10;;;16.75;;
47545;SDS011;50104;52.002;4.688;2022-12-26T00:24:36;40.83;;;19.15;;
47545;SDS011;50104;52.002;4.688;2022-12-26T00:29:37;43.63;;;18.40;;
47545;SDS011;50104;52.002;4.688;2022-12-26T00:34:37;46.25;;;20.73;;
47545;SDS011;50104;52.002;4.688;2022-12-26T00:39:38;43.53;;;20.83;;
47545;SDS011;50104;52.002;4.688;2022-12-26T00:44:39;42.22;;;20.30;;
47545;SDS011;50104;52.002;4.688;2022-12-26T00:49:39;42.78;;;19.92;;
47545;SDS011;50104;52.002;4.688;2022-12-26T00:54:40;37.13;;;19.30;;
47545;SDS011;50104;52.002;4.688;2022-12-26T00:59:41;40.50;;;20.15;;
47545;SDS011;50104;52.002;4.688;2022-12-26T01:04:42;39.38;;;20.08;;
47545;SDS011;50104;52.002;4.688;2022-12-26T01:09:42;32.20;;;18.25;;
47545;SDS011;50104;52.002;4.688;2022-12-26T01:14:43;37.72;;;19.35;;
47545;SDS011;50104;52.002;4.688;2022-12-26T01:19:44;38.13;;;19.50;;
47545;SDS011;50104;52.002;4.688;2022-12-26T01:24:45;44.72;;;21.40;;
47545;SDS011;50104;52.002;4.688;2022-12-26T01:29:46;38.03;;;20.40;;
47545;SDS011;50104;52.002;4.688;2022-12-26T01:34:46;35.95;;;19.25;;
47545;SDS011;50104;52.002;4.688;2022-12-26T01:39:47;35.65;;;17.98;;
47545;SDS011;50104;52.002;4.688;2022-12-26T01:50:04;31.45;;;16.48;;
47545;SDS011;50104;52.002;4.688;2022-12-26T01:55:09;24.65;;;14.30;;
47545;SDS011;50104;52.002;4.688;2022-12-26T02:00:14;24.55;;;15.00;;
47545;SDS011;50104;52.002;4.688;2022-12-26T02:05:15;27.00;;;14.25;;
47545;SDS011;50104;52.002;4.688;2022-12-26T02:10:35;26.35;;;14.30;;
47545;SDS011;50104;52.002;4.688;2022-12-26T02:15:49;22.50;;;13.50;;
47545;SDS011;50104;52.002;4.688;2022-12-26T02:48:46;27.77;;;15.32;;
47545;SDS011;50104;52.002;4.688;2022-12-26T02:59:57;33.45;;;17.20;;
47545;SDS011;50104;52.002;4.688;2022-12-26T03:11:37;29.25;;;17.52;;
47545;SDS011;50104;52.002;4.688;2022-12-26T03:17:00;32.08;;;17.80;;
47545;SDS011;50104;52.002;4.688;2022-12-26T03:22:21;33.03;;;18.83;;
47545;SDS011;50104;52.002;4.688;2022-12-26T03:27:31;27.67;;;17.58;;
47545;SDS011;50104;52.002;4.688;2022-12-26T03:32:40;27.55;;;14.77;;
47545;SDS011;50104;52.002;4.688;2022-12-26T03:43:02;19.55;;;12.77;;
47545;SDS011;50104;52.002;4.688;2022-12-26T03:48:36;19.35;;;13.13;;
47545;SDS011;50104;52.002;4.688;2022-12-26T03:54:09;17.10;;;11.65;;
47545;SDS011;50104;52.002;4.688;2022-12-26T03:59:41;19.30;;;13.27;;
47545;SDS011;50104;52.002;4.688;2022-12-26T04:05:09;20.00;;;13.10;;
47545;SDS011;50104;52.002;4.688;2022-12-26T04:10:37;19.88;;;10.32;;
47545;SDS011;50104;52.002;4.688;2022-12-26T04:16:05;14.43;;;9.77;;
47545;SDS011;50104;52.002;4.688;2022-12-26T04:21:39;15.52;;;10.00;;
47545;SDS011;50104;52.002;4.688;2022-12-26T04:27:10;11.93;;;7.97;;
47545;SDS011;50104;52.002;4.688;2022-12-26T04:37:57;13.45;;;8.55;;
47545;SDS011;50104;52.002;4.688;2022-12-26T04:43:17;11.10;;;6.80;;
47545;SDS011;50104;52.002;4.688;2022-12-26T04:48:44;10.40;;;6.03;;
47545;SDS011;50104;52.002;4.688;2022-12-26T04:54:06;8.80;;;5.33;;
47545;SDS011;50104;52.002;4.688;2022-12-26T04:59:06;7.78;;;5.20;;
47545;SDS011;50104;52.002;4.688;2022-12-26T05:04:11;7.22;;;5.65;;
47545;SDS011;50104;52.002;4.688;2022-12-26T05:09:35;10.77;;;5.90;;
47545;SDS011;50104;52.002;4.688;2022-12-26T05:14:36;11.10;;;5.90;;
47545;SDS011;50104;52.002;4.688;2022-12-26T05:19:37;5.90;;;4.32;;
47545;SDS011;50104;52.002;4.688;2022-12-26T05:24:56;6.90;;;5.13;;
47545;SDS011;50104;52.002;4.688;2022-12-26T05:30:15;6.38;;;4.50;;
47545;SDS011;50104;52.002;4.688;2022-12-26T05:35:16;7.70;;;4.97;;
47545;SDS011;50104;52.002;4.688;2022-12-26T05:40:17;7.68;;;4.72;;
47545;SDS011;50104;52.002;4.688;2022-12-26T05:45:18;9.25;;;5.28;;
47545;SDS011;50104;52.002;4.688;2022-12-26T05:50:20;7.55;;;5.10;;
47545;SDS011;50104;52.002;4.688;2022-12-26T05:55:21;10.65;;;6.38;;
47545;SDS011;50104;52.002;4.688;2022-12-26T06:00:23;10.70;;;6.32;;
47545;SDS011;50104;52.002;4.688;2022-12-26T06:05:24;10.00;;;6.15;;
47545;SDS011;50104;52.002;4.688;2022-12-26T06:10:25;11.65;;;5.88;;
47545;SDS011;50104;52.002;4.688;2022-12-26T06:15:28;10.18;;;6.25;;
47545;SDS011;50104;52.002;4.688;2022-12-26T06:20:29;7.93;;;5.28;;
47545;SDS011;50104;52.002;4.688;2022-12-26T06:25:29;7.22;;;4.93;;
47545;SDS011;50104;52.002;4.688;2022-12-26T06:30:30;7.97;;;4.95;;
47545;SDS011;50104;52.002;4.688;2022-12-26T06:35:32;9.73;;;5.80;;
47545;SDS011;50104;52.002;4.688;2022-12-26T06:40:33;12.32;;;6.75;;
47545;SDS011;50104;52.002;4.688;2022-12-26T06:45:37;7.93;;;5.25;;
47545;SDS011;50104;52.002;4.688;2022-12-26T06:50:38;8.95;;;5.22;;
47545;SDS011;50104;52.002;4.688;2022-12-26T06:55:39;6.72;;;4.30;;
47545;SDS011;50104;52.002;4.688;2022-12-26T07:00:39;7.38;;;4.60;;
47545;SDS011;50104;52.002;4.688;2022-12-26T07:05:40;6.68;;;4.20;;
47545;SDS011;50104;52.002;4.688;2022-12-26T07:10:41;5.88;;;4.55;;
47545;SDS011;50104;52.002;4.688;2022-12-26T07:15:42;6.53;;;5.38;;
47545;SDS011;50104;52.002;4.688;2022-12-26T07:20:42;6.30;;;4.25;;
47545;SDS011;50104;52.002;4.688;2022-12-26T07:25:45;7.22;;;4.65;;
47545;SDS011;50104;52.002;4.688;2022-12-26T07:30:48;7.60;;;4.95;;
47545;SDS011;50104;52.002;4.688;2022-12-26T07:35:49;9.13;;;4.38;;
47545;SDS011;50104;52.002;4.688;2022-12-26T07:40:50;8.48;;;4.53;;
47545;SDS011;50104;52.002;4.688;2022-12-26T07:45:51;9.98;;;5.88;;
47545;SDS011;50104;52.002;4.688;2022-12-26T07:50:51;14.05;;;6.03;;
47545;SDS011;50104;52.002;4.688;2022-12-26T07:55:52;17.42;;;6.57;;
47545;SDS011;50104;52.002;4.688;2022-12-26T08:00:53;5.60;;;4.43;;
47545;SDS011;50104;52.002;4.688;2022-12-26T08:05:54;9.77;;;5.05;;
47545;SDS011;50104;52.002;4.688;2022-12-26T08:10:58;7.20;;;4.72;;
47545;SDS011;50104;52.002;4.688;2022-12-26T08:16:07;10.52;;;5.55;;
47545;SDS011;50104;52.002;4.688;2022-12-26T08:21:10;10.65;;;6.20;;
47545;SDS011;50104;52.002;4.688;2022-12-26T08:26:12;9.85;;;5.13;;
47545;SDS011;50104;52.002;4.688;2022-12-26T08:31:19;10.88;;;4.70;;
47545;SDS011;50104;52.002;4.688;2022-12-26T08:36:20;8.60;;;5.85;;
47545;SDS011;50104;52.002;4.688;2022-12-26T08:41:21;15.20;;;6.18;;
47545;SDS011;50104;52.002;4.688;2022-12-26T08:46:22;10.25;;;4.97;;
47545;SDS011;50104;52.002;4.688;2022-12-26T08:51:23;8.55;;;3.90;;
47545;SDS011;50104;52.002;4.688;2022-12-26T08:56:25;9.25;;;3.10;;
47545;SDS011;50104;52.002;4.688;2022-12-26T09:01:27;7.88;;;2.13;;
47545;SDS011;50104;52.002;4.688;2022-12-26T09:06:33;5.90;;;1.95;;
47545;SDS011;50104;52.002;4.688;2022-12-26T09:11:36;9.40;;;2.00;;
47545;SDS011;50104;52.002;4.688;2022-12-26T09:16:40;12.90;;;2.83;;
47545;SDS011;50104;52.002;4.688;2022-12-26T09:21:43;7.68;;;1.48;;
47545;SDS011;50104;52.002;4.688;2022-12-26T09:26:44;13.93;;;2.40;;
47545;SDS011;50104;52.002;4.688;2022-12-26T09:31:45;5.93;;;1.83;;
47545;SDS011;50104;52.002;4.688;2022-12-26T09:36:46;12.00;;;1.80;;
47545;SDS011;50104;52.002;4.688;2022-12-26T09:41:50;6.00;;;1.55;;
47545;SDS011;50104;52.002;4.688;2022-12-26T09:52:58;3.22;;;1.10;;
47545;SDS011;50104;52.002;4.688;2022-12-26T09:58:13;5.13;;;1.52;;
47545;SDS011;50104;52.002;4.688;2022-12-26T10:03:29;10.38;;;2.05;;
47545;SDS011;50104;52.002;4.688;2022-12-26T10:08:56;8.38;;;1.30;;
47545;SDS011;50104;52.002;4.688;2022-12-26T10:19:46;7.82;;;1.45;;
47545;SDS011;50104;52.002;4.688;2022-12-26T10:25:09;4.28;;;1.33;;
47545;SDS011;50104;52.002;4.688;2022-12-26T10:30:23;7.82;;;1.50;;
47545;SDS011;50104;52.002;4.688;2022-12-26T10:35:36;5.38;;;1.55;;
47545;SDS011;50104;52.002;4.688;2022-12-26T10:40:42;4.30;;;1.30;;
47545;SDS011;50104;52.002;4.688;2022-12-26T10:50:47;7.07;;;1.50;;
47545;SDS011;50104;52.002;4.688;2022-12-26T10:55:48;4.80;;;2.28;;
47545;SDS011;50104;52.002;4.688;2022-12-26T11:00:49;2.58;;;1.30;;
47545;SDS011;50104;52.002;4.688;2022-12-26T11:05:54;3.65;;;1.40;;
47545;SDS011;50104;52.002;4.688;2022-12-26T11:16:46;7.45;;;1.27;;
47545;SDS011;50104;52.002;4.688;2022-12-26T11:21:48;3.70;;;1.48;;
47545;SDS011;50104;52.002;4.688;2022-12-26T11:26:49;3.85;;;1.27;;
47545;SDS011;50104;52.002;4.688;2022-12-26T11:31:57;5.97;;;1.15;;
47545;SDS011;50104;52.002;4.688;2022-12-26T11:37:00;2.80;;;1.58;;
47545;SDS011;50104;52.002;4.688;2022-12-26T11:42:12;3.88;;;1.30;;
47545;SDS011;50104;52.002;4.688;2022-12-26T11:47:22;1.88;;;1.38;;
47545;SDS011;50104;52.002;4.688;2022-12-26T11:57:38;5.95;;;1.50;;
47545;SDS011;50104;52.002;4.688;2022-12-26T12:02:39;7.38;;;1.10;;
47545;SDS011;50104;52.002;4.688;2022-12-26T12:13:07;2.60;;;0.98;;
47545;SDS011;50104;52.002;4.688;2022-12-26T12:24:17;1.77;;;0.80;;
47545;SDS011;50104;52.002;4.688;2022-12-26T12:56:30;2.78;;;1.10;;
47545;SDS011;50104;52.002;4.688;2022-12-26T13:01:58;2.47;;;1.85;;
47545;SDS011;50104;52.002;4.688;2022-12-26T13:07:10;3.53;;;0.85;;
47545;SDS011;50104;52.002;4.688;2022-12-26T13:12:25;3.13;;;0.80;;
47545;SDS011;50104;52.002;4.688;2022-12-26T13:17:40;4.22;;;0.70;;
47545;SDS011;50104;52.002;4.688;2022-12-26T13:23:16;4.07;;;1.35;;
47545;SDS011;50104;52.002;4.688;2022-12-26T13:28:51;3.30;;;1.00;;
47545;SDS011;50104;52.002;4.688;2022-12-26T13:34:35;3.55;;;0.90;;
47545;SDS011;50104;52.002;4.688;2022-12-26T13:39:36;5.93;;;1.00;;
47545;SDS011;50104;52.002;4.688;2022-12-26T13:44:39;9.55;;;1.40;;
47545;SDS011;50104;52.002;4.688;2022-12-26T13:49:42;2.40;;;0.90;;
47545;SDS011;50104;52.002;4.688;2022-12-26T14:05:23;6.35;;;0.95;;
47545;SDS011;50104;52.002;4.688;2022-12-26T14:16:14;4.13;;;0.90;;
47545;SDS011;50104;52.002;4.688;2022-12-26T14:58:38;6.38;;;1.38;;
47545;SDS011;50104;52.002;4.688;2022-12-26T15:03:48;2.45;;;1.20;;
47545;SDS011;50104;52.002;4.688;2022-12-26T15:20:17;4.53;;;1.48;;
47545;SDS011;50104;52.002;4.688;2022-12-26T15:46:49;7.35;;;1.02;;
47545;SDS011;50104;52.002;4.688;2022-12-26T15:52:33;6.80;;;1.17;;
47545;SDS011;50104;52.002;4.688;2022-12-26T15:58:32;7.10;;;1.35;;
47545;SDS011;50104;52.002;4.688;2022-12-26T16:04:31;4.38;;;1.20;;
47545;SDS011;50104;52.002;4.688;2022-12-26T16:14:49;4.53;;;1.73;;
47545;SDS011;50104;52.002;4.688;2022-12-26T16:25:39;7.22;;;1.88;;
47545;SDS011;50104;52.002;4.688;2022-12-26T16:30:45;5.33;;;1.87;;
47545;SDS011;50104;52.002;4.688;2022-12-26T16:35:46;5.28;;;1.50;;
47545;SDS011;50104;52.002;4.688;2022-12-26T16:40:48;8.95;;;1.75;;
47545;SDS011;50104;52.002;4.688;2022-12-26T16:45:51;4.57;;;2.45;;
47545;SDS011;50104;52.002;4.688;2022-12-26T16:51:03;13.43;;;2.92;;
47545;SDS011;50104;52.002;4.688;2022-12-26T17:01:30;10.93;;;3.08;;
47545;SDS011;50104;52.002;4.688;2022-12-26T17:06:36;11.67;;;2.60;;
47545;SDS011;50104;52.002;4.688;2022-12-26T17:17:07;4.78;;;2.70;;
47545;SDS011;50104;52.002;4.688;2022-12-26T17:22:27;9.97;;;2.70;;
47545;SDS011;50104;52.002;4.688;2022-12-26T17:27:30;8.67;;;2.63;;
47545;SDS011;50104;52.002;4.688;2022-12-26T17:32:32;4.32;;;2.63;;
47545;SDS011;50104;52.002;4.688;2022-12-26T17:37:39;5.43;;;2.47;;
47545;SDS011;50104;52.002;4.688;2022-12-26T17:42:43;8.63;;;2.13;;
47545;SDS011;50104;52.002;4.688;2022-12-26T17:47:54;6.13;;;1.63;;
47545;SDS011;50104;52.002;4.688;2022-12-26T17:58:17;3.80;;;1.43;;
47545;SDS011;50104;52.002;4.688;2022-12-26T18:03:18;8.73;;;2.55;;
47545;SDS011;50104;52.002;4.688;2022-12-26T18:13:35;6.20;;;1.75;;
47545;SDS011;50104;52.002;4.688;2022-12-26T18:18:40;5.97;;;1.80;;
47545;SDS011;50104;52.002;4.688;2022-12-26T18:23:43;2.50;;;1.90;;
47545;SDS011;50104;52.002;4.688;2022-12-26T18:28:45;4.57;;;2.33;;
47545;SDS011;50104;52.002;4.688;2022-12-26T18:33:47;7.88;;;2.63;;
47545;SDS011;50104;52.002;4.688;2022-12-26T18:38:48;7.83;;;3.60;;
47545;SDS011;50104;52.002;4.688;2022-12-26T18:43:49;14.50;;;4.68;;
47545;SDS011;50104;52.002;4.688;2022-12-26T18:48:50;11.47;;;4.87;;
47545;SDS011;50104;52.002;4.688;2022-12-26T18:53:58;12.73;;;3.63;;
47545;SDS011;50104;52.002;4.688;2022-12-26T18:58:59;6.32;;;3.30;;
47545;SDS011;50104;52.002;4.688;2022-12-26T19:04:00;8.32;;;2.90;;
47545;SDS011;50104;52.002;4.688;2022-12-26T19:09:00;7.22;;;3.15;;
47545;SDS011;50104;52.002;4.688;2022-12-26T19:14:02;3.60;;;2.70;;
47545;SDS011;50104;52.002;4.688;2022-12-26T19:19:06;6.45;;;2.10;;
47545;SDS011;50104;52.002;4.688;2022-12-26T19:24:08;8.68;;;2.65;;
47545;SDS011;50104;52.002;4.688;2022-12-26T19:29:10;5.90;;;1.80;;
47545;SDS011;50104;52.002;4.688;2022-12-26T19:34:11;7.33;;;2.43;;
47545;SDS011;50104;52.002;4.688;2022-12-26T19:39:12;6.67;;;2.77;;
47545;SDS011;50104;52.002;4.688;2022-12-26T19:44:13;7.78;;;4.28;;
47545;SDS011;50104;52.002;4.688;2022-12-26T19:49:15;9.80;;;4.00;;
47545;SDS011;50104;52.002;4.688;2022-12-26T19:54:16;11.75;;;4.20;;
47545;SDS011;50104;52.002;4.688;2022-12-26T19:59:17;4.97;;;3.10;;
47545;SDS011;50104;52.002;4.688;2022-12-26T20:04:17;9.53;;;4.33;;
47545;SDS011;50104;52.002;4.688;2022-12-26T20:09:18;7.57;;;3.17;;
47545;SDS011;50104;52.002;4.688;2022-12-26T20:14:20;11.02;;;4.20;;
47545;SDS011;50104;52.002;4.688;2022-12-26T20:19:23;8.70;;;3.83;;
47545;SDS011;50104;52.002;4.688;2022-12-26T20:24:25;7.57;;;3.03;;
47545;SDS011;50104;52.002;4.688;2022-12-26T20:29:25;8.30;;;2.67;;
47545;SDS011;50104;52.002;4.688;2022-12-26T20:34:26;7.45;;;3.95;;
47545;SDS011;50104;52.002;4.688;2022-12-26T20:39:28;5.23;;;2.93;;
47545;SDS011;50104;52.002;4.688;2022-12-26T20:44:30;7.73;;;2.87;;
47545;SDS011;50104;52.002;4.688;2022-12-26T20:49:31;5.33;;;2.87;;
47545;SDS011;50104;52.002;4.688;2022-12-26T20:54:32;6.70;;;3.03;;
47545;SDS011;50104;52.002;4.688;2022-12-26T20:59:33;9.57;;;3.47;;
47545;SDS011;50104;52.002;4.688;2022-12-26T21:04:34;5.90;;;2.43;;
47545;SDS011;50104;52.002;4.688;2022-12-26T21:09:35;7.32;;;2.58;;
47545;SDS011;50104;52.002;4.688;2022-12-26T21:14:35;4.83;;;1.90;;
47545;SDS011;50104;52.002;4.688;2022-12-26T21:19:36;6.83;;;2.60;;
47545;SDS011;50104;52.002;4.688;2022-12-26T21:24:37;7.63;;;2.33;;
47545;SDS011;50104;52.002;4.688;2022-12-26T21:29:38;4.60;;;2.27;;
47545;SDS011;50104;52.002;4.688;2022-12-26T21:34:39;7.50;;;2.80;;
47545;SDS011;50104;52.002;4.688;2022-12-26T21:39:40;12.90;;;4.55;;
47545;SDS011;50104;52.002;4.688;2022-12-26T21:44:42;9.40;;;2.00;;
47545;SDS011;50104;52.002;4.688;2022-12-26T21:49:42;7.93;;;2.30;;
47545;SDS011;50104;52.002;4.688;2022-12-26T21:54:43;11.13;;;3.40;;
47545;SDS011;50104;52.002;4.688;2022-12-26T22:00:02;5.67;;;2.67;;
47545;SDS011;50104;52.002;4.688;2022-12-26T22:05:04;9.57;;;2.70;;
47545;SDS011;50104;52.002;4.688;2022-12-26T22:10:06;12.67;;;3.10;;
47545;SDS011;50104;52.002;4.688;2022-12-26T22:15:08;15.10;;;3.30;;
47545;SDS011;50104;52.002;4.688;2022-12-26T22:20:29;7.37;;;3.00;;
47545;SDS011;50104;52.002;4.688;2022-12-26T22:25:30;10.30;;;2.83;;
47545;SDS011;50104;52.002;4.688;2022-12-26T22:30:31;8.77;;;3.27;;
47545;SDS011;50104;52.002;4.688;2022-12-26T22:35:32;8.43;;;2.50;;
47545;SDS011;50104;52.002;4.688;2022-12-26T22:40:33;10.95;;;2.90;;
47545;SDS011;50104;52.002;4.688;2022-12-26T22:45:37;5.90;;;2.83;;
47545;SDS011;50104;52.002;4.688;2022-12-26T22:50:40;8.50;;;3.23;;
47545;SDS011;50104;52.002;4.688;2022-12-26T22:55:50;8.80;;;1.70;;
47545;SDS011;50104;52.002;4.688;2022-12-26T23:05:57;10.33;;;2.33;;
47545;SDS011;50104;52.002;4.688;2022-12-26T23:10:58;8.47;;;2.50;;
47545;SDS011;50104;52.002;4.688;2022-12-26T23:17:00;7.03;;;2.57;;
47545;SDS011;50104;52.002;4.688;2022-12-26T23:21:38;12.15;;;2.85;;
47545;SDS011;50104;52.002;4.688;2022-12-26T23:26:45;7.00;;;1.97;;
47545;SDS011;50104;52.002;4.688;2022-12-26T23:32:25;5.37;;;2.10;;
47545;SDS011;50104;52.002;4.688;2022-12-26T23:37:26;4.87;;;2.37;;
47545;SDS011;50104;52.002;4.688;2022-12-26T23:42:27;7.17;;;2.27;;
47545;SDS011;50104;52.002;4.688;2022-12-26T23:47:28;7.17;;;2.30;;
47545;SDS011;50104;52.002;4.688;2022-12-26T23:52:29;6.63;;;2.78;;
47545;SDS011;50104;52.002;4.688;2022-12-26T23:57:30;7.95;;;2.30;;
